createdAt,value
2022-10-02T00:00:47.326Z,12.83
2022-10-02T00:01:47.317Z,12.90
2022-10-02T00:02:47.148Z,12.86
2022-10-02T00:03:47.103Z,12.84
2022-10-02T00:04:46.974Z,12.90
2022-10-02T00:05:46.883Z,12.91
2022-10-02T00:06:46.793Z,12.84
2022-10-02T00:07:46.705Z,12.80
2022-10-02T00:08:46.612Z,12.81
2022-10-02T00:09:46.523Z,12.87
2022-10-02T00:10:46.432Z,12.81
2022-10-02T00:11:46.347Z,12.88
2022-10-02T00:12:46.254Z,12.73
2022-10-02T00:13:46.163Z,12.76
2022-10-02T00:14:46.075Z,12.73
2022-10-02T00:15:45.992Z,12.77
2022-10-02T00:16:46.000Z,12.68
2022-10-02T00:17:45.811Z,12.79
2022-10-02T00:18:45.719Z,12.76
2022-10-02T00:19:45.645Z,12.65
2022-10-02T00:20:45.540Z,12.66
2022-10-02T00:21:45.447Z,12.69
2022-10-02T00:22:45.357Z,12.66
2022-10-02T00:23:45.270Z,12.69
2022-10-02T00:24:45.199Z,12.65
2022-10-02T00:25:45.094Z,12.66
2022-10-02T00:26:45.003Z,12.59
2022-10-02T00:27:45.029Z,12.62
2022-10-02T00:28:44.824Z,12.65
2022-10-02T00:29:44.748Z,12.79
2022-10-02T00:30:44.674Z,12.68
2022-10-02T00:31:44.613Z,12.71
2022-10-02T00:32:44.466Z,12.68
2022-10-02T00:33:44.373Z,12.66
2022-10-02T00:34:44.283Z,12.66
2022-10-02T00:35:44.202Z,12.77
2022-10-02T00:36:44.121Z,12.73
2022-10-02T00:37:44.020Z,12.73
2022-10-02T00:38:43.929Z,12.81
2022-10-02T00:39:43.838Z,12.73
2022-10-02T00:40:43.748Z,12.73
2022-10-02T00:41:43.659Z,12.65
2022-10-02T00:42:43.568Z,12.71
2022-10-02T00:43:43.480Z,12.69
2022-10-02T00:44:43.396Z,12.81
2022-10-02T00:45:43.330Z,12.79
2022-10-02T00:46:43.206Z,12.79
2022-10-02T00:47:43.132Z,12.79
2022-10-02T00:48:43.026Z,12.71
2022-10-02T00:49:42.952Z,12.69
2022-10-02T00:50:42.855Z,12.72
2022-10-02T00:51:42.763Z,12.65
2022-10-02T00:52:42.680Z,12.69
2022-10-02T00:53:42.587Z,12.68
2022-10-02T00:54:42.498Z,12.65
2022-10-02T00:55:42.404Z,12.62
2022-10-02T00:56:42.320Z,12.63
2022-10-02T00:57:42.232Z,12.65
2022-10-02T00:58:42.140Z,12.65
2022-10-02T00:59:42.060Z,12.79
2022-10-02T01:00:42.002Z,12.76
2022-10-02T01:01:41.877Z,12.77
2022-10-02T01:02:41.778Z,12.77
2022-10-02T01:03:41.696Z,12.71
2022-10-02T01:04:41.603Z,12.87
2022-10-02T01:05:41.510Z,12.90
2022-10-02T01:06:41.422Z,12.87
2022-10-02T01:07:41.330Z,12.86
2022-10-02T01:08:41.245Z,12.86
2022-10-02T01:09:41.158Z,12.93
2022-10-02T01:10:41.063Z,12.88
2022-10-02T01:11:40.974Z,12.91
2022-10-02T01:12:40.888Z,13.01
2022-10-02T01:13:40.801Z,12.98
2022-10-02T01:14:40.707Z,12.98
2022-10-02T01:15:40.614Z,13.06
2022-10-02T01:16:40.624Z,13.09
2022-10-02T01:17:40.442Z,13.05
2022-10-02T01:18:40.351Z,13.01
2022-10-02T01:19:40.267Z,13.02
2022-10-02T01:20:40.172Z,12.96
2022-10-02T01:21:40.079Z,12.93
2022-10-02T01:22:39.992Z,12.99
2022-10-02T01:23:39.900Z,13.01
2022-10-02T01:24:39.806Z,12.95
2022-10-02T01:25:39.723Z,12.98
2022-10-02T01:26:39.637Z,12.99
2022-10-02T01:27:39.679Z,13.01
2022-10-02T01:28:39.460Z,12.98
2022-10-02T01:29:39.360Z,12.98
2022-10-02T01:30:39.270Z,13.02
2022-10-02T01:31:39.233Z,12.98
2022-10-02T01:32:39.098Z,12.87
2022-10-02T01:33:39.010Z,13.01
2022-10-02T01:34:38.923Z,12.93
2022-10-02T01:35:38.832Z,12.99
2022-10-02T01:36:38.973Z,12.99
2022-10-02T01:37:38.645Z,13.06
2022-10-02T01:38:38.557Z,13.05
2022-10-02T01:39:38.468Z,13.05
2022-10-02T01:40:38.446Z,13.05
2022-10-02T01:41:38.292Z,13.09
2022-10-02T01:42:38.196Z,13.17
2022-10-02T01:43:38.108Z,13.16
2022-10-02T01:44:38.020Z,13.16
2022-10-02T01:45:37.944Z,13.17
2022-10-02T01:46:38.175Z,13.19
2022-10-02T01:47:37.754Z,13.29
2022-10-02T01:48:37.663Z,13.21
2022-10-02T01:49:37.568Z,13.21
2022-10-02T01:50:37.476Z,13.24
2022-10-02T01:51:37.395Z,13.09
2022-10-02T01:52:37.309Z,13.24
2022-10-02T01:53:37.215Z,13.21
2022-10-02T01:54:37.122Z,13.19
2022-10-02T01:55:37.036Z,13.21
2022-10-02T01:56:37.311Z,13.20
2022-10-02T01:57:36.863Z,13.11
2022-10-02T01:58:36.789Z,13.11
2022-10-02T01:59:36.675Z,13.13
2022-10-02T02:00:36.616Z,13.05
2022-10-02T02:01:36.501Z,13.04
2022-10-02T02:02:36.485Z,13.05
2022-10-02T02:03:36.321Z,13.16
2022-10-02T02:04:36.233Z,13.08
2022-10-02T02:05:36.138Z,13.05
2022-10-02T02:06:36.323Z,13.05
2022-10-02T02:07:35.958Z,13.06
2022-10-02T02:08:35.874Z,13.05
2022-10-02T02:09:35.790Z,13.01
2022-10-02T02:10:35.697Z,13.09
2022-10-02T02:11:35.607Z,13.09
2022-10-02T02:12:35.516Z,13.04
2022-10-02T02:13:35.449Z,13.05
2022-10-02T02:14:35.338Z,13.11
2022-10-02T02:15:35.244Z,13.02
2022-10-02T02:16:35.550Z,12.98
2022-10-02T02:17:35.071Z,12.91
2022-10-02T02:18:34.984Z,13.01
2022-10-02T02:19:34.890Z,12.91
2022-10-02T02:20:34.810Z,12.93
2022-10-02T02:21:34.718Z,12.87
2022-10-02T02:22:34.628Z,12.90
2022-10-02T02:23:34.549Z,12.88
2022-10-02T02:24:34.443Z,12.86
2022-10-02T02:25:34.358Z,12.93
2022-10-02T02:26:34.659Z,12.93
2022-10-02T02:27:34.173Z,12.86
2022-10-02T02:28:34.088Z,12.98
2022-10-02T02:29:34.001Z,12.88
2022-10-02T02:30:33.907Z,12.90
2022-10-02T02:31:33.849Z,13.04
2022-10-02T02:32:33.722Z,12.98
2022-10-02T02:33:33.634Z,13.01
2022-10-02T02:34:33.548Z,13.01
2022-10-02T02:35:33.456Z,12.95
2022-10-02T02:36:33.545Z,12.96
2022-10-02T02:37:33.290Z,12.93
2022-10-02T02:38:33.270Z,12.93
2022-10-02T02:39:33.103Z,12.96
2022-10-02T02:40:33.043Z,12.99
2022-10-02T02:41:32.923Z,12.93
2022-10-02T02:42:32.834Z,13.05
2022-10-02T02:43:32.749Z,13.01
2022-10-02T02:44:32.651Z,13.09
2022-10-02T02:45:32.640Z,12.98
2022-10-02T02:46:32.481Z,12.99
2022-10-02T02:47:32.392Z,13.04
2022-10-02T02:48:32.298Z,13.09
2022-10-02T02:49:32.210Z,13.08
2022-10-02T02:50:32.120Z,13.14
2022-10-02T02:51:32.032Z,13.05
2022-10-02T02:52:31.941Z,13.05
2022-10-02T02:53:31.853Z,12.99
2022-10-02T02:54:31.761Z,13.09
2022-10-02T02:55:31.676Z,13.04
2022-10-02T02:56:31.583Z,13.06
2022-10-02T02:57:31.496Z,13.05
2022-10-02T02:58:31.400Z,13.05
2022-10-02T02:59:31.315Z,12.96
2022-10-02T03:00:31.224Z,13.01
2022-10-02T03:01:31.213Z,13.05
2022-10-02T03:02:31.088Z,12.98
2022-10-02T03:03:30.961Z,12.99
2022-10-02T03:04:30.867Z,13.04
2022-10-02T03:05:30.778Z,12.98
2022-10-02T03:06:30.684Z,13.09
2022-10-02T03:07:30.602Z,13.08
2022-10-02T03:08:30.518Z,13.16
2022-10-02T03:09:30.424Z,13.14
2022-10-02T03:10:30.330Z,13.08
2022-10-02T03:11:30.262Z,13.09
2022-10-02T03:12:30.152Z,13.14
2022-10-02T03:13:30.078Z,13.04
2022-10-02T03:14:29.971Z,13.09
2022-10-02T03:15:29.904Z,13.08
2022-10-02T03:16:29.797Z,13.16
2022-10-02T03:17:29.703Z,13.05
2022-10-02T03:18:29.618Z,13.19
2022-10-02T03:19:29.540Z,13.08
2022-10-02T03:20:29.437Z,13.13
2022-10-02T03:21:29.355Z,13.11
2022-10-02T03:22:29.296Z,13.13
2022-10-02T03:23:29.176Z,13.19
2022-10-02T03:24:29.083Z,13.17
2022-10-02T03:25:28.988Z,13.04
2022-10-02T03:26:28.902Z,13.04
2022-10-02T03:27:32.672Z,13.02
2022-10-02T03:28:53.760Z,13.08
2022-10-02T03:29:28.633Z,13.08
2022-10-02T03:30:28.556Z,13.05
2022-10-02T03:31:28.575Z,13.06
2022-10-02T03:32:28.369Z,13.09
2022-10-02T03:33:28.269Z,12.99
2022-10-02T03:34:28.194Z,12.99
2022-10-02T03:35:28.100Z,13.04
2022-10-02T03:36:28.041Z,13.08
2022-10-02T03:37:27.929Z,13.05
2022-10-02T03:38:27.831Z,13.06
2022-10-02T03:39:27.740Z,13.05
2022-10-02T03:40:27.653Z,12.99
2022-10-02T03:41:27.561Z,12.99
2022-10-02T03:42:27.474Z,12.90
2022-10-02T03:43:27.376Z,12.90
2022-10-02T03:44:27.297Z,13.04
2022-10-02T03:45:49.506Z,12.99
2022-10-02T03:46:27.198Z,13.05
2022-10-02T03:47:27.029Z,13.08
2022-10-02T03:48:26.934Z,13.06
2022-10-02T03:49:26.843Z,13.06
2022-10-02T03:50:26.758Z,13.19
2022-10-02T03:51:26.662Z,13.11
2022-10-02T03:52:26.577Z,13.06
2022-10-02T03:53:26.490Z,13.19
2022-10-02T03:54:26.398Z,13.14
2022-10-02T03:55:26.309Z,13.05
2022-10-02T03:56:26.221Z,13.11
2022-10-02T03:57:26.134Z,13.11
2022-10-02T03:58:26.040Z,13.16
2022-10-02T03:59:25.955Z,13.21
2022-10-02T04:00:25.865Z,13.11
2022-10-02T04:01:25.831Z,13.19
2022-10-02T04:02:25.686Z,13.11
2022-10-02T04:03:25.627Z,13.13
2022-10-02T04:04:25.515Z,13.08
2022-10-02T04:05:25.413Z,13.14
2022-10-02T04:06:25.325Z,13.09
2022-10-02T04:07:25.240Z,13.19
2022-10-02T04:08:25.152Z,13.17
2022-10-02T04:09:25.058Z,13.21
2022-10-02T04:10:24.971Z,13.21
2022-10-02T04:11:24.880Z,13.16
2022-10-02T04:12:24.795Z,13.29
2022-10-02T04:13:24.704Z,13.27
2022-10-02T04:14:24.612Z,13.26
2022-10-02T04:15:24.519Z,13.35
2022-10-02T04:16:24.500Z,13.27
2022-10-02T04:17:24.344Z,13.21
2022-10-02T04:18:24.254Z,13.30
2022-10-02T04:19:24.165Z,13.17
2022-10-02T04:20:24.078Z,13.11
2022-10-02T04:21:23.991Z,13.14
2022-10-02T04:22:23.902Z,13.16
2022-10-02T04:23:23.814Z,13.06
2022-10-02T04:24:23.721Z,13.17
2022-10-02T04:25:23.626Z,13.08
2022-10-02T04:26:23.540Z,13.14
2022-10-02T04:27:23.454Z,13.08
2022-10-02T04:28:23.421Z,13.05
2022-10-02T04:29:23.274Z,13.09
2022-10-02T04:30:23.187Z,13.08
2022-10-02T04:31:23.151Z,13.09
2022-10-02T04:32:23.006Z,13.16
2022-10-02T04:33:22.925Z,13.06
2022-10-02T04:34:22.827Z,13.08
2022-10-02T04:35:22.746Z,13.16
2022-10-02T04:36:22.657Z,13.20
2022-10-02T04:37:22.561Z,13.20
2022-10-02T04:38:22.486Z,13.27
2022-10-02T04:39:22.383Z,13.27
2022-10-02T04:40:22.294Z,13.26
2022-10-02T04:41:22.202Z,13.29
2022-10-02T04:42:22.145Z,13.35
2022-10-02T04:43:22.023Z,13.29
2022-10-02T04:44:21.975Z,13.32
2022-10-02T04:45:21.852Z,13.30
2022-10-02T04:46:21.755Z,13.30
2022-10-02T04:47:21.672Z,13.24
2022-10-02T04:48:21.582Z,13.20
2022-10-02T04:49:21.487Z,13.21
2022-10-02T04:50:21.404Z,13.19
2022-10-02T04:51:21.313Z,13.20
2022-10-02T04:52:21.223Z,13.16
2022-10-02T04:53:21.140Z,13.19
2022-10-02T04:54:21.057Z,13.23
2022-10-02T04:55:20.958Z,13.16
2022-10-02T04:56:20.876Z,13.16
2022-10-02T04:57:20.783Z,13.13
2022-10-02T04:58:20.699Z,13.19
2022-10-02T04:59:20.601Z,13.23
2022-10-02T05:00:20.507Z,13.23
2022-10-02T05:01:20.479Z,13.20
2022-10-02T05:02:20.408Z,13.35
2022-10-02T05:03:20.248Z,13.35
2022-10-02T05:04:20.148Z,13.32
2022-10-02T05:05:20.068Z,13.32
2022-10-02T05:06:19.972Z,13.29
2022-10-02T05:07:19.889Z,13.26
2022-10-02T05:08:19.803Z,13.36
2022-10-02T05:09:19.709Z,13.30
2022-10-02T05:10:19.618Z,13.38
2022-10-02T05:11:19.530Z,13.30
2022-10-02T05:12:19.443Z,13.29
2022-10-02T05:13:19.356Z,13.20
2022-10-02T05:14:19.264Z,13.26
2022-10-02T05:15:19.184Z,13.23
2022-10-02T05:16:19.125Z,13.19
2022-10-02T05:17:18.991Z,13.21
2022-10-02T05:18:18.907Z,13.19
2022-10-02T05:19:18.818Z,13.23
2022-10-02T05:20:18.728Z,13.14
2022-10-02T05:21:18.637Z,13.06
2022-10-02T05:22:18.549Z,13.06
2022-10-02T05:23:18.461Z,13.16
2022-10-02T05:24:18.376Z,13.23
2022-10-02T05:25:18.279Z,13.20
2022-10-02T05:26:18.192Z,13.19
2022-10-02T05:27:18.103Z,13.26
2022-10-02T05:28:18.100Z,13.29
2022-10-02T05:29:17.928Z,13.23
2022-10-02T05:30:17.874Z,13.35
2022-10-02T05:31:17.784Z,13.30
2022-10-02T05:32:17.659Z,13.32
2022-10-02T05:33:17.578Z,13.43
2022-10-02T05:34:17.478Z,13.38
2022-10-02T05:35:17.397Z,13.36
2022-10-02T05:36:17.304Z,13.39
2022-10-02T05:37:17.213Z,13.36
2022-10-02T05:38:17.126Z,13.40
2022-10-02T05:39:17.034Z,13.40
2022-10-02T05:40:16.943Z,13.39
2022-10-02T05:41:16.879Z,13.49
2022-10-02T05:42:16.766Z,13.53
2022-10-02T05:43:16.675Z,13.46
2022-10-02T05:44:16.589Z,13.53
2022-10-02T05:45:16.504Z,13.55
2022-10-02T05:46:16.450Z,13.58
2022-10-02T05:47:16.328Z,13.61
2022-10-02T05:48:16.235Z,13.55
2022-10-02T05:49:16.141Z,13.55
2022-10-02T05:50:16.079Z,13.55
2022-10-02T05:51:15.967Z,13.49
2022-10-02T05:52:15.872Z,13.61
2022-10-02T05:53:15.789Z,13.61
2022-10-02T05:54:15.698Z,13.63
2022-10-02T05:55:15.612Z,13.71
2022-10-02T05:56:15.521Z,13.67
2022-10-02T05:57:15.427Z,13.71
2022-10-02T05:58:15.336Z,13.64
2022-10-02T05:59:15.255Z,13.60
2022-10-02T06:00:15.168Z,13.54
2022-10-02T06:01:15.119Z,13.51
2022-10-02T06:02:15.019Z,13.58
2022-10-02T06:03:14.899Z,13.57
2022-10-02T06:04:14.817Z,13.57
2022-10-02T06:05:14.721Z,13.58
2022-10-02T06:06:14.634Z,13.57
2022-10-02T06:07:23.699Z,13.54
2022-10-02T06:09:20.216Z,13.45
2022-10-02T06:10:18.723Z,13.46
2022-10-02T06:11:18.636Z,13.42
2022-10-02T06:12:18.549Z,13.53
2022-10-02T06:13:18.467Z,13.42
2022-10-02T06:14:18.373Z,13.40
2022-10-02T06:15:18.283Z,13.43
2022-10-02T06:16:18.224Z,13.47
2022-10-02T06:17:18.103Z,13.54
2022-10-02T06:18:18.017Z,13.49
2022-10-02T06:19:17.927Z,13.53
2022-10-02T06:20:17.837Z,13.58
2022-10-02T06:21:17.760Z,13.57
2022-10-02T06:22:17.660Z,13.55
2022-10-02T06:23:17.571Z,13.55
2022-10-02T06:24:17.479Z,13.60
2022-10-02T06:25:17.395Z,13.61
2022-10-02T06:26:17.307Z,13.63
2022-10-02T06:27:17.216Z,13.65
2022-10-02T06:28:17.163Z,13.72
2022-10-02T06:29:19.270Z,13.80
2022-10-02T06:30:16.949Z,13.88
2022-10-02T06:31:16.889Z,13.86
2022-10-02T06:32:16.785Z,13.94
2022-10-02T06:33:16.683Z,13.96
2022-10-02T06:34:16.597Z,14.08
2022-10-02T06:35:16.505Z,14.09
2022-10-02T06:36:16.425Z,14.12
2022-10-02T06:37:16.328Z,14.09
2022-10-02T06:38:16.238Z,14.12
2022-10-02T06:39:16.149Z,14.03
2022-10-02T06:40:16.067Z,14.12
2022-10-02T06:41:15.970Z,14.15
2022-10-02T06:42:15.908Z,14.15
2022-10-02T06:43:15.793Z,14.05
2022-10-02T06:44:15.706Z,14.18
2022-10-02T06:45:15.620Z,14.13
2022-10-02T06:46:15.545Z,14.12
2022-10-02T06:47:15.439Z,14.18
2022-10-02T06:48:15.354Z,14.26
2022-10-02T06:49:15.264Z,14.15
2022-10-02T06:50:15.173Z,14.26
2022-10-02T06:51:15.094Z,14.18
2022-10-02T06:52:15.003Z,14.19
2022-10-02T06:53:14.913Z,14.16
2022-10-02T06:54:14.819Z,14.16
2022-10-02T06:55:14.730Z,14.18
2022-10-02T06:56:14.641Z,14.21
2022-10-02T06:57:14.556Z,14.15
2022-10-02T06:58:14.478Z,14.16
2022-10-02T06:59:14.379Z,14.05
2022-10-02T07:00:14.292Z,14.19
2022-10-02T07:01:14.238Z,14.12
2022-10-02T07:02:14.157Z,14.13
2022-10-02T07:03:14.024Z,14.16
2022-10-02T07:04:14.934Z,14.21
2022-10-02T07:05:13.848Z,14.05
2022-10-02T07:06:13.763Z,14.05
2022-10-02T07:07:13.665Z,14.03
2022-10-02T07:08:13.587Z,14.04
2022-10-02T07:09:13.494Z,14.05
2022-10-02T07:10:13.408Z,14.15
2022-10-02T07:11:13.318Z,14.12
2022-10-02T07:12:13.232Z,14.09
2022-10-02T07:13:13.144Z,14.18
2022-10-02T07:14:13.053Z,14.16
2022-10-02T07:15:12.964Z,14.12
2022-10-02T07:16:12.911Z,14.21
2022-10-02T07:17:12.785Z,14.23
2022-10-02T07:18:12.700Z,14.26
2022-10-02T07:19:12.608Z,14.36
2022-10-02T07:20:12.518Z,14.40
2022-10-02T07:21:12.435Z,14.40
2022-10-02T07:22:39.655Z,14.41
2022-10-02T07:23:12.260Z,14.38
2022-10-02T07:24:12.164Z,14.41
2022-10-02T07:25:12.079Z,14.36
2022-10-02T07:26:11.992Z,14.30
2022-10-02T07:27:11.904Z,14.36
2022-10-02T07:28:11.835Z,14.46
2022-10-02T07:29:11.721Z,14.51
2022-10-02T07:30:11.637Z,14.46
2022-10-02T07:31:11.619Z,14.46
2022-10-02T07:32:11.468Z,14.49
2022-10-02T07:33:11.376Z,14.58
2022-10-02T07:34:11.285Z,14.67
2022-10-02T07:35:11.202Z,14.63
2022-10-02T07:36:11.109Z,14.63
2022-10-02T07:37:11.021Z,14.59
2022-10-02T07:38:10.937Z,14.63
2022-10-02T07:39:10.847Z,14.66
2022-10-02T07:40:10.750Z,14.69
2022-10-02T07:41:10.672Z,14.67
2022-10-02T07:42:10.605Z,14.69
2022-10-02T07:43:10.488Z,14.63
2022-10-02T07:44:10.405Z,14.69
2022-10-02T07:45:10.319Z,14.63
2022-10-02T07:46:10.284Z,14.69
2022-10-02T07:47:10.139Z,14.74
2022-10-02T07:48:10.054Z,14.82
2022-10-02T07:49:09.964Z,14.83
2022-10-02T07:50:09.876Z,14.85
2022-10-02T07:51:09.791Z,14.78
2022-10-02T07:52:09.703Z,14.83
2022-10-02T07:53:09.616Z,14.93
2022-10-02T07:54:09.528Z,14.92
2022-10-02T07:55:09.438Z,14.87
2022-10-02T07:56:09.346Z,14.97
2022-10-02T07:57:10.095Z,15.04
2022-10-02T07:58:09.172Z,14.92
2022-10-02T07:59:09.088Z,15.03
2022-10-02T08:00:09.000Z,15.05
2022-10-02T08:01:08.915Z,15.04
2022-10-02T08:02:08.876Z,15.11
2022-10-02T08:03:08.769Z,15.19
2022-10-02T08:04:08.654Z,15.22
2022-10-02T08:05:08.561Z,15.20
2022-10-02T08:06:08.472Z,15.19
2022-10-02T08:07:08.394Z,15.19
2022-10-02T08:08:08.303Z,15.29
2022-10-02T08:09:08.206Z,15.29
2022-10-02T08:10:08.117Z,15.35
2022-10-02T08:11:08.042Z,15.38
2022-10-02T08:12:07.948Z,15.35
2022-10-02T08:13:07.859Z,15.36
2022-10-02T08:14:07.776Z,15.25
2022-10-02T08:15:07.685Z,15.26
2022-10-02T08:16:07.721Z,15.40
2022-10-02T08:17:07.506Z,15.41
2022-10-02T08:18:23.209Z,15.40
2022-10-02T08:19:07.331Z,15.51
2022-10-02T08:20:07.249Z,15.51
2022-10-02T08:21:07.155Z,15.62
2022-10-02T08:22:07.071Z,15.60
2022-10-02T08:23:06.997Z,15.62
2022-10-02T08:24:06.901Z,15.60
2022-10-02T08:25:06.809Z,15.58
2022-10-02T08:26:06.730Z,15.54
2022-10-02T08:27:06.633Z,15.47
2022-10-02T08:28:06.669Z,15.54
2022-10-02T08:29:06.463Z,15.56
2022-10-02T08:30:06.381Z,15.52
2022-10-02T08:31:06.281Z,15.51
2022-10-02T08:32:06.220Z,15.47
2022-10-02T08:33:06.111Z,15.36
2022-10-02T08:34:06.020Z,15.30
2022-10-02T08:35:05.935Z,15.40
2022-10-02T08:36:05.849Z,15.30
2022-10-02T08:37:05.759Z,15.29
2022-10-02T08:38:05.664Z,15.22
2022-10-02T08:39:05.588Z,15.20
2022-10-02T08:40:05.506Z,15.27
2022-10-02T08:41:05.413Z,15.20
2022-10-02T08:42:05.333Z,15.22
2022-10-02T08:43:05.235Z,15.22
2022-10-02T08:44:05.147Z,15.15
2022-10-02T08:45:05.080Z,15.19
2022-10-02T08:46:05.013Z,15.20
2022-10-02T08:47:04.881Z,15.07
2022-10-02T08:48:04.793Z,14.92
2022-10-02T08:49:04.706Z,14.97
2022-10-02T08:50:04.622Z,14.99
2022-10-02T08:51:04.535Z,14.93
2022-10-02T08:52:04.456Z,14.89
2022-10-02T08:53:04.361Z,14.92
2022-10-02T08:54:04.272Z,14.99
2022-10-02T08:55:04.183Z,14.93
2022-10-02T08:56:04.095Z,14.97
2022-10-02T08:57:04.014Z,15.07
2022-10-02T08:58:03.923Z,15.01
2022-10-02T08:59:03.834Z,15.07
2022-10-02T09:00:03.749Z,15.04
2022-10-02T09:01:03.701Z,15.12
2022-10-02T09:02:03.611Z,15.19
2022-10-02T09:03:03.489Z,15.19
2022-10-02T09:04:03.402Z,15.23
2022-10-02T09:05:03.319Z,15.17
2022-10-02T09:06:03.223Z,15.33
2022-10-02T09:07:03.141Z,15.29
2022-10-02T09:08:03.052Z,15.27
2022-10-02T09:09:02.963Z,15.25
2022-10-02T09:10:02.876Z,15.27
2022-10-02T09:11:02.795Z,15.23
2022-10-02T09:12:02.706Z,15.27
2022-10-02T09:13:02.616Z,15.22
2022-10-02T09:14:02.526Z,15.35
2022-10-02T09:15:02.445Z,15.36
2022-10-02T09:16:02.416Z,15.36
2022-10-02T09:17:02.270Z,15.45
2022-10-02T09:18:02.178Z,15.43
2022-10-02T09:19:02.099Z,15.52
2022-10-02T09:20:01.996Z,15.52
2022-10-02T09:21:01.918Z,15.48
2022-10-02T09:22:01.844Z,15.62
2022-10-02T09:23:01.741Z,15.65
2022-10-02T09:24:01.649Z,15.69
2022-10-02T09:25:01.571Z,15.69
2022-10-02T09:26:01.478Z,15.77
2022-10-02T09:27:01.393Z,15.80
2022-10-02T09:28:01.333Z,15.81
2022-10-02T09:29:01.229Z,15.72
2022-10-02T09:30:01.135Z,15.81
2022-10-02T09:31:01.037Z,15.76
2022-10-02T09:32:00.965Z,15.87
2022-10-02T09:33:00.885Z,15.85
2022-10-02T09:34:00.778Z,15.85
2022-10-02T09:35:00.703Z,15.87
2022-10-02T09:36:00.604Z,15.98
2022-10-02T09:37:00.520Z,15.91
2022-10-02T09:38:00.432Z,15.90
2022-10-02T09:39:00.349Z,15.91
2022-10-02T09:40:00.260Z,15.91
2022-10-02T09:41:00.166Z,15.90
2022-10-02T09:42:00.091Z,16.00
2022-10-02T09:42:59.997Z,16.02
2022-10-02T09:43:59.922Z,16.09
2022-10-02T09:45:01.741Z,16.16
2022-10-02T09:45:59.790Z,16.09
2022-10-02T09:46:59.656Z,16.09
2022-10-02T09:47:59.560Z,16.08
2022-10-02T09:48:59.479Z,16.16
2022-10-02T09:49:59.393Z,16.16
2022-10-02T09:50:59.307Z,16.21
2022-10-02T09:51:59.217Z,16.25
2022-10-02T09:52:59.127Z,16.28
2022-10-02T09:53:59.049Z,16.29
2022-10-02T09:54:58.954Z,16.24
2022-10-02T09:55:58.873Z,16.18
2022-10-02T09:56:58.781Z,16.10
2022-10-02T09:57:58.695Z,16.00
2022-10-02T09:58:58.609Z,16.00
2022-10-02T09:59:58.523Z,15.95
2022-10-02T10:00:58.483Z,15.96
2022-10-02T10:01:58.359Z,15.88
2022-10-02T10:02:58.257Z,15.99
2022-10-02T10:03:58.172Z,15.87
2022-10-02T10:05:06.597Z,16.02
2022-10-02T10:05:58.000Z,15.96
2022-10-02T10:06:57.909Z,16.06
2022-10-02T10:07:57.825Z,16.13
2022-10-02T10:08:57.742Z,16.24
2022-10-02T10:09:57.647Z,16.32
2022-10-02T10:10:57.556Z,16.33
2022-10-02T10:11:57.486Z,16.34
2022-10-02T10:12:57.395Z,16.37
2022-10-02T10:13:57.300Z,16.36
2022-10-02T10:14:57.224Z,16.40
2022-10-02T10:15:57.128Z,16.39
2022-10-02T10:16:57.050Z,16.43
2022-10-02T10:17:56.959Z,16.49
2022-10-02T10:18:56.869Z,16.58
2022-10-02T10:19:56.797Z,16.58
2022-10-02T10:20:56.697Z,16.59
2022-10-02T10:21:56.612Z,16.57
2022-10-02T10:22:56.526Z,16.64
2022-10-02T10:23:56.442Z,16.70
2022-10-02T10:24:56.348Z,16.88
2022-10-02T10:25:56.268Z,16.82
2022-10-02T10:26:56.178Z,16.83
2022-10-02T10:27:56.112Z,16.91
2022-10-02T10:28:56.010Z,16.97
2022-10-02T10:29:55.921Z,16.92
2022-10-02T10:30:55.836Z,16.92
2022-10-02T10:31:55.767Z,16.87
2022-10-02T10:32:55.656Z,16.84
2022-10-02T10:33:55.572Z,16.84
2022-10-02T10:34:55.485Z,16.80
2022-10-02T10:35:55.397Z,16.97
2022-10-02T10:36:55.312Z,16.91
2022-10-02T10:37:55.235Z,16.91
2022-10-02T10:38:55.143Z,16.79
2022-10-02T10:39:55.064Z,16.88
2022-10-02T10:40:54.971Z,16.90
2022-10-02T10:41:54.883Z,16.97
2022-10-02T10:43:08.666Z,16.91
2022-10-02T10:43:54.700Z,16.87
2022-10-02T10:44:54.621Z,16.95
2022-10-02T10:45:54.594Z,17.02
2022-10-02T10:46:54.458Z,17.09
2022-10-02T10:47:54.365Z,17.14
2022-10-02T10:48:54.274Z,17.24
2022-10-02T10:49:54.195Z,17.30
2022-10-02T10:50:54.107Z,17.47
2022-10-02T10:51:54.019Z,17.50
2022-10-02T10:52:53.933Z,17.52
2022-10-02T10:53:57.172Z,17.53
2022-10-02T10:54:53.759Z,17.53
2022-10-02T10:55:53.672Z,17.56
2022-10-02T10:56:53.581Z,17.47
2022-10-02T10:57:53.509Z,17.46
2022-10-02T10:58:53.410Z,17.46
2022-10-02T10:59:53.330Z,17.54
2022-10-02T11:00:53.300Z,17.63
2022-10-02T11:01:53.266Z,17.63
2022-10-02T11:02:53.075Z,17.66
2022-10-02T11:03:52.989Z,17.66
2022-10-02T11:04:52.903Z,17.53
2022-10-02T11:05:52.815Z,17.37
2022-10-02T11:06:52.730Z,17.35
2022-10-02T11:07:52.647Z,17.37
2022-10-02T11:08:52.546Z,17.43
2022-10-02T11:09:52.470Z,17.50
2022-10-02T11:10:52.381Z,17.39
2022-10-02T11:11:52.302Z,17.37
2022-10-02T11:12:52.213Z,17.41
2022-10-02T11:13:52.126Z,17.38
2022-10-02T11:14:52.033Z,17.43
2022-10-02T11:15:51.957Z,17.52
2022-10-02T11:16:51.903Z,17.53
2022-10-02T11:17:51.787Z,17.49
2022-10-02T11:18:51.697Z,17.50
2022-10-02T11:19:51.610Z,17.56
2022-10-02T11:20:51.522Z,17.54
2022-10-02T11:21:51.438Z,17.54
2022-10-02T11:22:51.348Z,17.56
2022-10-02T11:23:51.268Z,17.68
2022-10-02T11:24:51.185Z,17.69
2022-10-02T11:25:51.093Z,17.83
2022-10-02T11:26:51.076Z,17.86
2022-10-02T11:27:50.941Z,17.91
2022-10-02T11:28:50.836Z,17.83
2022-10-02T11:29:50.744Z,17.84
2022-10-02T11:30:50.666Z,17.59
2022-10-02T11:31:50.641Z,17.53
2022-10-02T11:32:50.496Z,17.47
2022-10-02T11:33:50.410Z,17.43
2022-10-02T11:34:50.315Z,17.32
2022-10-02T11:35:50.259Z,17.25
2022-10-02T11:36:50.143Z,17.17
2022-10-02T11:37:50.065Z,17.09
2022-10-02T11:38:49.981Z,17.13
2022-10-02T11:39:49.902Z,17.12
2022-10-02T11:40:49.805Z,17.09
2022-10-02T11:41:49.726Z,17.01
2022-10-02T11:42:49.634Z,17.06
2022-10-02T11:43:49.544Z,17.02
2022-10-02T11:44:49.458Z,16.98
2022-10-02T11:45:49.399Z,16.95
2022-10-02T11:46:49.288Z,17.01
2022-10-02T11:47:49.207Z,16.87
2022-10-02T11:48:49.115Z,16.83
2022-10-02T11:49:49.029Z,16.82
2022-10-02T11:50:48.945Z,16.84
2022-10-02T11:51:48.859Z,16.90
2022-10-02T11:52:48.772Z,16.83
2022-10-02T11:53:48.688Z,16.83
2022-10-02T11:54:48.613Z,16.82
2022-10-02T11:55:48.511Z,16.84
2022-10-02T11:56:48.438Z,16.90
2022-10-02T11:57:48.344Z,16.79
2022-10-02T11:58:48.256Z,16.79
2022-10-02T11:59:48.170Z,16.90
2022-10-02T12:00:48.104Z,16.91
2022-10-02T12:01:47.999Z,16.92
2022-10-02T12:02:47.967Z,16.92
2022-10-02T12:03:47.831Z,16.92
2022-10-02T12:04:47.743Z,16.95
2022-10-02T12:05:47.651Z,16.98
2022-10-02T12:06:47.565Z,16.95
2022-10-02T12:07:56.142Z,16.94
2022-10-02T12:09:51.802Z,16.98
2022-10-02T12:10:51.694Z,16.97
2022-10-02T12:11:51.596Z,16.98
2022-10-02T12:12:51.550Z,17.07
2022-10-02T12:13:51.434Z,17.01
2022-10-02T12:14:51.338Z,16.97
2022-10-02T12:15:51.249Z,17.07
2022-10-02T12:16:51.220Z,17.09
2022-10-02T12:17:51.079Z,17.02
2022-10-02T12:18:50.990Z,17.04
2022-10-02T12:19:50.910Z,17.12
2022-10-02T12:20:50.823Z,17.22
2022-10-02T12:21:50.734Z,17.34
2022-10-02T12:22:50.649Z,17.32
2022-10-02T12:23:50.563Z,17.43
2022-10-02T12:24:54.722Z,17.56
2022-10-02T12:25:50.393Z,17.66
2022-10-02T12:26:50.300Z,17.62
2022-10-02T12:27:50.243Z,17.68
2022-10-02T12:28:50.135Z,17.69
2022-10-02T12:29:50.051Z,17.81
2022-10-02T12:30:49.961Z,17.83
2022-10-02T12:31:49.893Z,17.96
2022-10-02T12:32:49.791Z,18.09
2022-10-02T12:33:54.181Z,18.17
2022-10-02T12:34:49.615Z,18.21
2022-10-02T12:35:49.526Z,18.15
2022-10-02T12:36:49.441Z,18.15
2022-10-02T12:37:49.356Z,18.08
2022-10-02T12:38:49.272Z,18.08
2022-10-02T12:39:49.190Z,18.05
2022-10-02T12:40:49.100Z,18.09
2022-10-02T12:41:49.016Z,18.09
2022-10-02T12:42:48.924Z,17.97
2022-10-02T12:43:48.842Z,17.96
2022-10-02T12:44:48.758Z,17.88
2022-10-02T12:45:48.690Z,17.96
2022-10-02T12:46:48.585Z,17.97
2022-10-02T12:47:48.501Z,17.97
2022-10-02T12:48:48.412Z,17.91
2022-10-02T12:49:48.331Z,18.01
2022-10-02T12:50:48.242Z,18.02
2022-10-02T12:51:48.173Z,18.09
2022-10-02T12:52:48.072Z,18.21
2022-10-02T12:53:47.992Z,18.28